Time;durP1;ratioP1;P1;durP2;ratioP2;P2;SDS_P1;SDS_P2;PMS_P1;PMS_P2;Temp;Humidity;BMP_temperature;BMP_pressure;BME280_temperature;BME280_humidity;BME280_pressure;Samples;Min_cycle;Max_cycle;Signal;HPM_P1;HPM_P2
2021/12/16 00:02:19;;;;;;;74.93;52.45;;;18.90;59.40;;;;;;4934224;28;89802;-78
2021/12/16 00:07:34;;;;;;;75.85;52.67;;;18.90;59.70;;;;;;4934666;28;90841;-78
2021/12/16 00:10:28;;;;;;;75.35;53.08;;;18.90;59.50;;;;;;4933166;28;90240;-79
2021/12/16 00:34:43;;;;;;;76.40;53.17;;;18.80;59.50;;;;;;4933097;28;91180;-78
2021/12/16 00:37:08;;;;;;;75.97;52.97;;;18.80;59.70;;;;;;4942975;28;89994;-78
2021/12/16 00:39:36;;;;;;;76.22;52.83;;;18.80;59.60;;;;;;4935865;28;90330;-78
2021/12/16 00:42:09;;;;;;;75.63;52.78;;;18.80;59.60;;;;;;4939988;28;90339;-78
2021/12/16 00:49:38;;;;;;;75.70;52.92;;;18.80;59.50;;;;;;4933776;28;90832;-78
2021/12/16 00:55:01;;;;;;;74.63;52.60;;;18.80;59.70;;;;;;4941398;28;90460;-78
2021/12/16 00:57:26;;;;;;;75.70;52.85;;;18.80;59.60;;;;;;4932989;28;91937;-79
2021/12/16 00:59:53;;;;;;;75.28;52.80;;;18.80;59.70;;;;;;4936247;28;90968;-78
2021/12/16 01:02:40;;;;;;;75.25;52.85;;;18.80;59.80;;;;;;4936870;28;92574;-78
2021/12/16 01:41:26;;;;;;;75.20;52.78;;;18.80;59.80;;;;;;4935780;28;96373;-78
2021/12/16 01:51:57;;;;;;;74.78;52.25;;;18.70;59.80;;;;;;4931972;28;90172;-78
2021/12/16 01:59:32;;;;;;;75.22;52.65;;;18.70;60.00;;;;;;4936217;28;91588;-79
2021/12/16 02:02:10;;;;;;;75.15;52.55;;;18.70;59.90;;;;;;4942842;28;90949;-79
2021/12/16 02:04:42;;;;;;;76.05;53.03;;;18.70;59.80;;;;;;4935694;28;90017;-80
2021/12/16 02:07:25;;;;;;;75.60;52.50;;;18.70;59.80;;;;;;4942395;28;90644;-78
2021/12/16 02:09:51;;;;;;;75.20;52.72;;;18.70;59.80;;;;;;4928398;28;92899;-77
2021/12/16 02:12:47;;;;;;;75.50;52.90;;;18.70;59.80;;;;;;4902890;28;92067;-78
2021/12/16 02:29:25;;;;;;;74.95;52.72;;;18.60;59.90;;;;;;4928866;28;90604;-77
2021/12/16 02:36:55;;;;;;;75.82;52.90;;;18.60;59.80;;;;;;4937303;28;91293;-79
2021/12/16 02:39:29;;;;;;;75.93;52.83;;;18.60;59.90;;;;;;4932068;28;90461;-80
2021/12/16 02:42:04;;;;;;;75.82;53.05;;;18.60;59.90;;;;;;4939350;28;90412;-78
2021/12/16 02:48:30;;;;;;;74.30;52.38;;;18.60;60.00;;;;;;4933617;28;93148;-78
2021/12/16 02:50:01;;;;;;;75.05;53.00;;;18.60;59.70;;;;;;4935756;28;90160;-79
2021/12/16 02:52:27;;;;;;;75.35;52.65;;;18.60;59.80;;;;;;4939508;28;90652;-79
2021/12/16 02:54:54;;;;;;;75.60;52.78;;;18.60;59.80;;;;;;4939639;28;89952;-79
2021/12/16 02:57:20;;;;;;;74.97;52.28;;;18.60;60.00;;;;;;4936538;28;90604;-79
2021/12/16 02:59:47;;;;;;;75.75;53.05;;;18.60;59.90;;;;;;4936302;28;91469;-79
2021/12/16 03:02:16;;;;;;;75.50;52.92;;;18.60;59.90;;;;;;4932049;28;91169;-79
2021/12/16 03:04:44;;;;;;;74.18;52.20;;;18.60;59.90;;;;;;4938041;28;89609;-78
2021/12/16 03:07:12;;;;;;;75.32;53.00;;;18.60;59.90;;;;;;4943592;28;89751;-79
2021/12/16 03:12:53;;;;;;;74.97;52.20;;;18.60;59.90;;;;;;4934521;28;90880;-78
2021/12/16 03:18:10;;;;;;;;;;;18.60;59.90;;;;;;4949300;28;89402;-79
2021/12/16 03:20:48;;;;;;;73.97;52.00;;;18.60;60.00;;;;;;4941133;28;89511;-79
2021/12/16 03:23:35;;;;;;;75.13;52.80;;;18.60;60.00;;;;;;4938625;28;91466;-79
2021/12/16 03:31:50;;;;;;;74.85;52.80;;;18.50;59.90;;;;;;4940354;28;89652;-79
2021/12/16 03:34:58;;;;;;;74.43;52.50;;;18.60;59.90;;;;;;4926821;28;90059;-80
2021/12/16 03:37:15;;;;;;;74.60;52.25;;;18.50;59.90;;;;;;4924462;28;90188;-79
2021/12/16 03:39:57;;;;;;;74.25;52.25;;;18.50;59.80;;;;;;4922465;28;92401;-79
2021/12/16 03:42:34;;;;;;;74.10;52.15;;;18.50;60.00;;;;;;4922925;28;90575;-79
2021/12/16 03:46:25;;;;;;;73.50;52.03;;;18.50;60.00;;;;;;4931276;28;91801;-79
2021/12/16 03:47:56;;;;;;;73.80;51.80;;;18.60;60.00;;;;;;4936767;28;89637;-79
2021/12/16 03:50:22;;;;;;;74.50;52.47;;;18.50;59.90;;;;;;4938958;28;90059;-79
2021/12/16 03:52:49;;;;;;;74.25;52.35;;;18.50;60.00;;;;;;4936525;28;89645;-80
2021/12/16 03:55:17;;;;;;;74.95;52.42;;;18.50;59.90;;;;;;4928736;28;97176;-79
2021/12/16 03:57:43;;;;;;;74.25;52.22;;;18.50;59.90;;;;;;4932737;28;88787;-78
2021/12/16 04:00:17;;;;;;;75.22;52.45;;;18.50;60.00;;;;;;4929252;28;90502;-79
2021/12/16 04:02:43;;;;;;;74.57;52.45;;;18.50;59.80;;;;;;4933489;28;90891;-79
2021/12/16 04:05:12;;;;;;;73.68;52.17;;;18.50;59.90;;;;;;4934178;28;92182;-77
2021/12/16 04:07:39;;;;;;;73.78;52.10;;;18.50;60.00;;;;;;4932050;28;90740;-78
2021/12/16 04:10:12;;;;;;;74.50;52.22;;;18.50;59.80;;;;;;4930082;28;90920;-77
2021/12/16 04:12:37;;;;;;;74.57;52.22;;;18.50;59.90;;;;;;4926770;28;92362;-77
2021/12/16 04:15:07;;;;;;;74.72;51.92;;;18.50;60.00;;;;;;4924231;28;90841;-77
2021/12/16 04:17:33;;;;;;;74.35;52.15;;;18.50;60.00;;;;;;4929117;28;89538;-77
2021/12/16 04:20:02;;;;;;;74.60;52.53;;;18.50;60.00;;;;;;4926574;28;90717;-77
2021/12/16 04:22:38;;;;;;;74.88;52.00;;;18.50;60.10;;;;;;4935345;28;89413;-77
2021/12/16 04:25:10;;;;;;;74.80;52.42;;;18.50;59.90;;;;;;4925093;28;90664;-77
2021/12/16 04:27:37;;;;;;;74.18;52.17;;;18.50;59.90;;;;;;4930226;28;90877;-77
2021/12/16 04:30:05;;;;;;;73.95;52.15;;;18.50;59.90;;;;;;4932085;28;90842;-76
2021/12/16 04:32:32;;;;;;;74.50;52.22;;;18.50;60.00;;;;;;4933623;28;93136;-76
2021/12/16 04:34:58;;;;;;;74.30;52.25;;;18.50;60.00;;;;;;4931533;28;91588;-78
2021/12/16 04:37:24;;;;;;;73.97;52.17;;;18.50;60.60;;;;;;4939111;28;89989;-78
2021/12/16 04:39:50;;;;;;;73.95;52.17;;;18.50;59.90;;;;;;4930208;28;90561;-78
2021/12/16 04:42:19;;;;;;;74.85;52.70;;;18.50;60.00;;;;;;4933029;28;91607;-77
2021/12/16 04:44:45;;;;;;;74.85;52.78;;;18.50;60.10;;;;;;4936090;28;90690;-78
2021/12/16 04:47:12;;;;;;;74.15;52.08;;;18.50;59.90;;;;;;4934550;28;90163;-77
2021/12/16 04:49:39;;;;;;;74.45;51.95;;;18.50;59.90;;;;;;4932338;28;89956;-77
2021/12/16 04:52:12;;;;;;;74.97;51.92;;;18.50;59.90;;;;;;4940278;28;90455;-79
2021/12/16 04:54:37;;;;;;;73.95;52.05;;;18.50;59.90;;;;;;4936578;28;93618;-79
2021/12/16 04:57:03;;;;;;;74.00;52.10;;;18.50;60.10;;;;;;4938991;28;95464;-79
2021/12/16 04:59:31;;;;;;;75.32;52.40;;;18.50;59.90;;;;;;4937085;28;90921;-78
2021/12/16 05:02:02;;;;;;;74.28;52.05;;;18.50;60.00;;;;;;4936081;28;90595;-78
2021/12/16 05:04:28;;;;;;;;;;;18.40;59.90;;;;;;4934671;28;90652;-77
2021/12/16 05:06:53;;;;;;;73.00;51.85;;;18.50;60.20;;;;;;4937672;28;91663;-78
2021/12/16 05:12:08;;;;;;;74.43;52.65;;;18.50;60.00;;;;;;4932912;28;89161;-78
2021/12/16 05:14:34;;;;;;;74.53;52.55;;;18.50;60.10;;;;;;4929465;28;92478;-78
2021/12/16 05:17:00;;;;;;;75.22;52.38;;;18.40;59.80;;;;;;4938026;28;90472;-79
2021/12/16 05:19:25;;;;;;;74.30;52.17;;;18.40;60.00;;;;;;4931294;28;91192;-78
2021/12/16 05:21:58;;;;;;;74.20;52.70;;;18.40;59.90;;;;;;4930829;28;91656;-77
2021/12/16 05:24:27;;;;;;;74.32;52.60;;;18.40;60.10;;;;;;4928978;28;89883;-77
2021/12/16 05:26:58;;;;;;;74.68;52.08;;;18.40;59.80;;;;;;4934240;28;89995;-78
2021/12/16 05:29:25;;;;;;;74.25;52.10;;;18.50;60.20;;;;;;4933478;28;91583;-79
2021/12/16 05:31:51;;;;;;;73.65;52.28;;;18.50;60.30;;;;;;4928081;28;89720;-77
2021/12/16 05:34:18;;;;;;;74.15;52.03;;;18.60;60.40;;;;;;4932574;28;90532;-77
2021/12/16 05:36:44;;;;;;;74.43;51.85;;;18.70;60.30;;;;;;4930006;28;91503;-77
2021/12/16 05:39:12;;;;;;;74.57;52.35;;;18.80;60.10;;;;;;4920183;28;91120;-77
2021/12/16 05:41:38;;;;;;;74.47;52.42;;;19.00;59.80;;;;;;4933055;28;91960;-77
2021/12/16 05:44:04;;;;;;;74.00;52.15;;;19.10;59.50;;;;;;4931058;28;92258;-77
2021/12/16 05:46:30;;;;;;;75.15;52.13;;;19.20;59.40;;;;;;4923966;28;90083;-77
2021/12/16 05:48:57;;;;;;;75.03;52.67;;;19.40;59.10;;;;;;4928664;28;90465;-78
2021/12/16 05:51:29;;;;;;;75.53;52.15;;;19.50;58.70;;;;;;4937604;28;90829;-78
2021/12/16 05:53:55;;;;;;;75.75;52.83;;;19.60;58.70;;;;;;4936254;28;90318;-78
2021/12/16 05:56:21;;;;;;;74.72;52.17;;;19.70;58.30;;;;;;4933484;28;91384;-77
2021/12/16 05:58:47;;;;;;;74.95;52.47;;;19.80;58.10;;;;;;4927272;28;90493;-78
2021/12/16 06:01:21;;;;;;;74.47;52.17;;;19.90;57.90;;;;;;4926608;28;90492;-77
2021/12/16 06:03:48;;;;;;;75.13;52.15;;;19.90;57.70;;;;;;4933608;28;90631;-77
2021/12/16 06:06:15;;;;;;;74.75;52.03;;;20.00;57.50;;;;;;4931658;28;90324;-78
2021/12/16 06:08:41;;;;;;;75.75;52.58;;;20.10;57.40;;;;;;4936650;28;90888;-79
2021/12/16 06:11:15;;;;;;;75.15;52.60;;;20.10;57.30;;;;;;4930171;28;91111;-78
2021/12/16 06:14:22;;;;;;;76.28;52.35;;;20.20;57.10;;;;;;4932925;28;94199;-79
2021/12/16 06:27:49;;;;;;;75.75;52.65;;;20.30;56.60;;;;;;4930825;28;90439;-78
2021/12/16 06:30:18;;;;;;;76.50;52.42;;;20.30;56.60;;;;;;4937307;28;90698;-78
2021/12/16 06:32:44;;;;;;;77.03;52.80;;;20.30;56.70;;;;;;4931765;28;91084;-78
2021/12/16 06:35:11;;;;;;;75.55;52.47;;;20.30;56.50;;;;;;4933786;28;91656;-79
2021/12/16 06:37:37;;;;;;;75.00;52.92;;;20.30;56.40;;;;;;4935401;28;90453;-78
2021/12/16 06:40:05;;;;;;;77.07;53.03;;;20.40;56.50;;;;;;4922279;28;90543;-78
2021/12/16 06:42:34;;;;;;;76.07;52.72;;;20.30;56.40;;;;;;4920486;28;92659;-78
2021/12/16 06:45:06;;;;;;;75.47;52.58;;;20.30;56.50;;;;;;4928969;28;90219;-78
2021/12/16 06:47:42;;;;;;;75.90;52.42;;;20.30;56.50;;;;;;4929651;28;89731;-78
2021/12/16 06:50:09;;;;;;;77.20;52.95;;;20.30;56.60;;;;;;4939019;28;90036;-78
2021/12/16 06:52:41;;;;;;;74.88;52.38;;;20.30;56.60;;;;;;4927919;28;89796;-78
2021/12/16 07:00:19;;;;;;;76.38;52.83;;;20.20;56.50;;;;;;4912398;28;92166;-78
2021/12/16 07:05:26;;;;;;;77.00;52.90;;;20.20;56.60;;;;;;4933701;28;91274;-78
2021/12/16 07:07:52;;;;;;;77.80;52.65;;;20.30;56.40;;;;;;4929311;28;89598;-77
2021/12/16 07:10:19;;;;;;;78.47;53.00;;;20.40;56.10;;;;;;4933457;28;90786;-78
2021/12/16 07:12:49;;;;;;;75.45;52.78;;;20.50;56.40;;;;;;4925216;28;90780;-78
2021/12/16 07:15:28;;;;;;;76.72;52.92;;;20.60;56.40;;;;;;4925933;28;90727;-79
2021/12/16 07:17:55;;;;;;;76.75;53.08;;;20.60;56.50;;;;;;4935765;28;90187;-79
2021/12/16 07:20:28;;;;;;;76.78;52.75;;;20.60;56.60;;;;;;4933587;28;90126;-78
2021/12/16 07:22:56;;;;;;;77.32;53.45;;;20.50;56.70;;;;;;4940079;28;91022;-79
2021/12/16 07:25:21;;;;;;;79.70;53.50;;;20.50;57.10;;;;;;4938009;28;90838;-80
2021/12/16 07:27:47;;;;;;;76.45;53.17;;;20.50;57.20;;;;;;4936775;28;89930;-78
2021/12/16 07:30:16;;;;;;;77.93;53.22;;;20.50;57.40;;;;;;4943621;28;89837;-79
2021/12/16 07:32:42;;;;;;;77.88;53.58;;;20.40;57.50;;;;;;4936215;28;92687;-79
2021/12/16 07:35:12;;;;;;;78.68;53.60;;;20.40;57.60;;;;;;4938152;28;91065;-78
2021/12/16 07:37:38;;;;;;;77.00;53.28;;;20.40;57.70;;;;;;4933404;28;90254;-79
2021/12/16 07:40:08;;;;;;;78.55;53.03;;;20.40;57.90;;;;;;4924758;28;89552;-78
2021/12/16 07:45:21;;;;;;;77.95;53.75;;;20.50;58.30;;;;;;4909133;28;91626;-78
2021/12/16 07:47:47;;;;;;;78.80;54.13;;;20.60;57.20;;;;;;4924356;28;95129;-78
2021/12/16 07:50:14;;;;;;;79.32;53.78;;;20.70;56.80;;;;;;4934300;28;90859;-78
2021/12/16 07:52:40;;;;;;;81.43;53.95;;;20.70;56.90;;;;;;4936169;28;90382;-77
2021/12/16 07:55:08;;;;;;;83.72;53.60;;;20.60;57.20;;;;;;4933570;28;90118;-79
2021/12/16 07:57:33;;;;;;;79.00;53.08;;;20.60;57.60;;;;;;4934562;28;90122;-77
2021/12/16 07:59:59;;;;;;;82.28;53.75;;;20.60;58.20;;;;;;4924990;28;91083;-77
2021/12/16 08:02:25;;;;;;;78.05;53.60;;;20.60;58.20;;;;;;4935641;28;91137;-78
2021/12/16 08:04:53;;;;;;;80.35;53.67;;;20.60;58.30;;;;;;4929998;28;96366;-77
2021/12/16 08:07:20;;;;;;;78.18;52.95;;;20.60;58.40;;;;;;4932883;28;89004;-77
2021/12/16 08:09:49;;;;;;;81.43;53.65;;;20.60;58.10;;;;;;4929441;28;95078;-78
2021/12/16 08:12:16;;;;;;;80.50;53.67;;;20.70;58.20;;;;;;4920316;28;92749;-76
2021/12/16 08:14:43;;;;;;;80.90;53.35;;;20.60;58.00;;;;;;4929778;28;91022;-77
2021/12/16 08:17:09;;;;;;;80.90;54.10;;;20.60;57.90;;;;;;4924410;28;90466;-77
2021/12/16 08:19:36;;;;;;;84.28;54.13;;;20.60;58.10;;;;;;4918589;28;90740;-77
2021/12/16 08:22:03;;;;;;;78.88;53.25;;;20.60;58.30;;;;;;4909400;28;93127;-78
2021/12/16 08:24:29;;;;;;;82.82;53.95;;;20.60;58.30;;;;;;4930068;28;90107;-78
2021/12/16 08:26:55;;;;;;;80.00;53.45;;;20.60;58.70;;;;;;4934380;28;90368;-78
2021/12/16 08:29:21;;;;;;;82.00;54.20;;;20.60;58.60;;;;;;4925862;28;89604;-78
2021/12/16 08:31:47;;;;;;;79.22;53.78;;;20.70;58.50;;;;;;4922989;28;93182;-78
2021/12/16 08:34:15;;;;;;;78.50;53.85;;;20.60;58.70;;;;;;4925868;28;94922;-77
2021/12/16 08:36:41;;;;;;;80.15;53.97;;;20.70;58.70;;;;;;4928462;28;90808;-77
2021/12/16 08:39:09;;;;;;;81.68;53.30;;;20.60;58.50;;;;;;4928832;28;91042;-78
2021/12/16 08:41:45;;;;;;;78.82;53.72;;;20.60;58.70;;;;;;4925845;28;90228;-77
2021/12/16 08:44:11;;;;;;;81.20;54.55;;;20.70;58.60;;;;;;4931031;28;96350;-78
2021/12/16 08:46:41;;;;;;;82.53;55.13;;;20.70;58.70;;;;;;4933243;28;94458;-78
2021/12/16 08:49:07;;;;;;;79.45;54.13;;;20.80;58.70;;;;;;4934498;28;90386;-77
2021/12/16 08:51:39;;;;;;;79.47;54.22;;;20.80;58.70;;;;;;4934729;28;90415;-77
2021/12/16 08:54:05;;;;;;;80.43;54.15;;;20.80;58.90;;;;;;4934206;28;93965;-78
2021/12/16 08:56:31;;;;;;;78.60;54.15;;;20.80;58.90;;;;;;4928154;28;88989;-78
2021/12/16 08:58:58;;;;;;;79.80;53.55;;;20.80;58.80;;;;;;4935925;28;90604;-79
2021/12/16 09:01:27;;;;;;;81.32;53.95;;;20.80;58.90;;;;;;4934254;28;90298;-78
2021/12/16 09:03:55;;;;;;;79.13;53.85;;;20.80;58.90;;;;;;4922780;28;91966;-78
2021/12/16 09:06:20;;;;;;;78.43;53.80;;;20.80;58.70;;;;;;4921863;28;90010;-77
2021/12/16 09:08:47;;;;;;;79.95;54.90;;;20.80;58.60;;;;;;4923887;28;93486;-77
2021/12/16 09:11:19;;;;;;;83.07;55.60;;;20.80;58.70;;;;;;4917214;28;90227;-76
2021/12/16 09:13:46;;;;;;;82.38;54.35;;;20.80;58.70;;;;;;4913611;28;90465;-78
2021/12/16 09:16:17;;;;;;;80.63;54.65;;;20.90;58.60;;;;;;4920541;28;90200;-76
2021/12/16 09:18:44;;;;;;;;;;;20.80;58.40;;;;;;4919966;28;91472;-77
2021/12/16 09:21:16;;;;;;;82.53;54.47;;;20.80;58.20;;;;;;4928714;28;89856;-77
2021/12/16 09:23:44;;;;;;;84.07;54.28;;;20.80;58.20;;;;;;4927749;28;90229;-79
2021/12/16 09:26:11;;;;;;;81.57;54.67;;;20.80;58.20;;;;;;4928586;28;91088;-78
2021/12/16 09:28:38;;;;;;;81.13;55.00;;;20.80;58.30;;;;;;4933231;28;90833;-77
2021/12/16 09:31:10;;;;;;;82.30;54.28;;;20.90;58.40;;;;;;4924706;28;90645;-77
2021/12/16 09:33:36;;;;;;;86.32;54.65;;;20.80;58.50;;;;;;4905387;28;90585;-76
2021/12/16 09:36:03;;;;;;;80.97;55.17;;;20.80;58.50;;;;;;4921638;28;90090;-77
2021/12/16 09:38:29;;;;;;;85.30;55.63;;;20.90;58.30;;;;;;4925975;28;90027;-77
2021/12/16 09:40:57;;;;;;;79.15;54.28;;;20.80;57.90;;;;;;4924081;28;91446;-77
2021/12/16 09:43:33;;;;;;;81.60;55.20;;;20.90;57.80;;;;;;4919370;28;92482;-78
2021/12/16 09:46:05;;;;;;;82.57;54.88;;;20.80;57.70;;;;;;4932334;28;89309;-77
2021/12/16 09:48:32;;;;;;;79.53;53.90;;;20.80;57.80;;;;;;4924048;28;89521;-78
2021/12/16 09:51:00;;;;;;;82.15;54.38;;;20.80;58.00;;;;;;4918974;28;92698;-77
2021/12/16 09:53:26;;;;;;;83.28;54.72;;;20.80;58.10;;;;;;4928350;28;91172;-78
2021/12/16 09:56:01;;;;;;;83.03;55.15;;;20.80;58.20;;;;;;4925276;28;96294;-78
2021/12/16 09:58:34;;;;;;;82.25;55.90;;;20.80;58.20;;;;;;4924312;28;89896;-78
2021/12/16 10:01:01;;;;;;;84.45;55.55;;;20.80;58.10;;;;;;4899918;28;91694;-78
2021/12/16 10:03:27;;;;;;;84.50;57.08;;;20.80;58.10;;;;;;4901605;28;92111;-78
2021/12/16 10:05:53;;;;;;;85.60;56.60;;;20.80;58.10;;;;;;4914350;28;90709;-77
2021/12/16 10:08:19;;;;;;;85.43;56.28;;;20.70;57.90;;;;;;4901866;28;91362;-77
2021/12/16 10:10:45;;;;;;;84.75;56.70;;;20.80;58.10;;;;;;4903804;28;93632;-77
2021/12/16 10:13:18;;;;;;;85.55;57.72;;;20.80;58.00;;;;;;4909086;28;89966;-78
2021/12/16 10:18:18;;;;;;;86.40;57.63;;;20.70;58.10;;;;;;4909827;28;91725;-79
2021/12/16 10:20:49;;;;;;;85.55;58.30;;;20.70;57.80;;;;;;4914880;28;91767;-78
2021/12/16 10:23:25;;;;;;;85.07;57.30;;;20.70;57.60;;;;;;4930988;28;92341;-77
2021/12/16 10:25:57;;;;;;;85.40;57.70;;;20.70;57.70;;;;;;4920377;28;92252;-77
2021/12/16 10:28:50;;;;;;;83.50;57.17;;;20.70;57.50;;;;;;4915551;28;91912;-78
2021/12/16 10:31:35;;;;;;;83.78;57.58;;;20.80;57.60;;;;;;4909714;28;91226;-78
2021/12/16 10:34:04;;;;;;;87.63;58.63;;;20.70;57.60;;;;;;4904020;28;90187;-77
2021/12/16 10:36:34;;;;;;;85.65;57.55;;;20.70;57.40;;;;;;4912500;28;90373;-77
2021/12/16 10:39:22;;;;;;;85.93;57.75;;;20.80;57.50;;;;;;4913836;28;90532;-77
2021/12/16 10:42:07;;;;;;;86.82;58.80;;;20.80;57.30;;;;;;4922668;28;90915;-78
2021/12/16 10:44:36;;;;;;;84.90;58.10;;;20.80;57.20;;;;;;4920446;28;90532;-78
2021/12/16 10:47:07;;;;;;;86.50;58.25;;;20.80;57.00;;;;;;4911446;28;90967;-77
2021/12/16 10:49:49;;;;;;;84.72;57.88;;;20.80;56.70;;;;;;4914143;28;90366;-77
2021/12/16 10:52:18;;;;;;;86.70;58.30;;;20.80;56.60;;;;;;4922065;28;90960;-78
2021/12/16 10:54:46;;;;;;;85.45;57.20;;;20.80;56.70;;;;;;4917124;28;89939;-79
2021/12/16 10:57:15;;;;;;;86.60;58.42;;;20.80;57.00;;;;;;4922904;28;91799;-79
2021/12/16 10:59:50;;;;;;;83.80;57.95;;;20.80;57.00;;;;;;4917722;28;89864;-78
2021/12/16 11:02:28;;;;;;;83.88;57.72;;;20.80;57.30;;;;;;4918974;28;90417;-76
2021/12/16 11:05:17;;;;;;;84.55;57.40;;;20.80;57.60;;;;;;4918709;28;90512;-78
2021/12/16 11:07:46;;;;;;;83.97;57.50;;;20.80;57.20;;;;;;4917014;28;91128;-78
2021/12/16 11:10:14;;;;;;;84.03;57.75;;;20.80;57.20;;;;;;4909270;28;90702;-78
2021/12/16 11:12:48;;;;;;;83.60;57.05;;;20.70;57.00;;;;;;4904483;28;91639;-78
2021/12/16 11:15:21;;;;;;;84.35;57.95;;;20.70;56.90;;;;;;4908493;28;91491;-78
2021/12/16 11:17:52;;;;;;;88.32;59.00;;;20.70;57.20;;;;;;4918485;28;90047;-78
2021/12/16 11:20:28;;;;;;;88.45;59.90;;;20.70;56.80;;;;;;4920381;28;89549;-79
2021/12/16 11:23:02;;;;;;;86.03;57.42;;;20.60;56.70;;;;;;4923226;28;90082;-78
2021/12/16 11:25:39;;;;;;;88.15;59.83;;;20.70;56.70;;;;;;4921524;28;93699;-78
2021/12/16 11:28:13;;;;;;;88.22;59.42;;;20.70;56.70;;;;;;4921705;28;88782;-79
2021/12/16 11:30:55;;;;;;;87.80;58.90;;;20.60;56.60;;;;;;4924573;28;89737;-78
2021/12/16 11:33:29;;;;;;;85.72;58.33;;;20.60;56.60;;;;;;4919430;28;90841;-78
2021/12/16 11:36:12;;;;;;;88.40;58.67;;;20.70;56.50;;;;;;4917303;28;90861;-78
2021/12/16 11:38:44;;;;;;;85.95;58.63;;;20.70;56.60;;;;;;4923205;28;91489;-78
2021/12/16 11:41:15;;;;;;;86.55;58.72;;;20.70;56.50;;;;;;4921240;28;90730;-78
2021/12/16 11:43:52;;;;;;;87.55;57.92;;;20.70;56.40;;;;;;4921315;28;90721;-78
2021/12/16 11:46:45;;;;;;;86.13;57.47;;;20.60;56.40;;;;;;4923606;28;90690;-79
2021/12/16 11:49:21;;;;;;;84.30;58.22;;;20.70;56.50;;;;;;4923513;28;93854;-79
2021/12/16 11:51:52;;;;;;;85.70;57.58;;;20.70;56.40;;;;;;4929139;28;89528;-78
2021/12/16 11:54:23;;;;;;;;;;;20.60;56.30;;;;;;4946085;28;91861;-79
2021/12/16 11:57:05;;;;;;;86.93;59.47;;;20.60;56.40;;;;;;4931164;28;90623;-78
2021/12/16 11:59:42;;;;;;;87.03;59.38;;;20.60;56.40;;;;;;4926982;28;89974;-78
2021/12/16 12:02:25;;;;;;;85.20;58.65;;;20.60;56.40;;;;;;4925211;28;90492;-78
2021/12/16 12:04:52;;;;;;;84.55;57.90;;;20.60;56.30;;;;;;4924873;28;90667;-78
2021/12/16 12:07:18;;;;;;;82.72;57.28;;;20.60;56.30;;;;;;4926131;28;91674;-78
2021/12/16 12:09:49;;;;;;;83.95;56.88;;;20.60;56.30;;;;;;4924055;28;90420;-78
2021/12/16 12:12:15;;;;;;;81.93;56.25;;;20.60;56.20;;;;;;4920358;28;90390;-78
2021/12/16 12:14:43;;;;;;;82.93;56.83;;;20.50;56.40;;;;;;4918524;28;90033;-79
2021/12/16 12:17:20;;;;;;;81.10;55.60;;;20.50;56.60;;;;;;4932471;28;91635;-78
2021/12/16 12:19:51;;;;;;;83.25;56.03;;;20.40;56.60;;;;;;4927800;28;90374;-78
2021/12/16 12:22:22;;;;;;;81.13;55.87;;;20.40;56.80;;;;;;4927017;28;91906;-79
2021/12/16 12:24:49;;;;;;;80.00;55.20;;;20.30;56.80;;;;;;4924878;28;95775;-78
2021/12/16 12:27:23;;;;;;;82.10;55.95;;;20.30;57.00;;;;;;4923841;28;91435;-79
2021/12/16 12:29:53;;;;;;;81.18;55.00;;;20.20;57.00;;;;;;4907231;28;92207;-78
2021/12/16 12:32:37;;;;;;;80.55;55.15;;;20.20;57.10;;;;;;4916726;28;90719;-78
2021/12/16 12:35:10;;;;;;;80.13;55.28;;;20.20;57.30;;;;;;4921777;28;90886;-78
2021/12/16 12:37:39;;;;;;;81.47;55.50;;;20.20;57.70;;;;;;4919099;28;92980;-77
2021/12/16 12:40:07;;;;;;;83.07;55.47;;;20.20;58.00;;;;;;4908614;28;89978;-78
2021/12/16 12:42:33;;;;;;;83.85;56.25;;;20.20;58.10;;;;;;4917960;28;89981;-79
2021/12/16 12:44:59;;;;;;;80.38;55.00;;;20.20;58.30;;;;;;4917402;28;88947;-79
2021/12/16 12:47:32;;;;;;;81.40;56.05;;;20.30;59.00;;;;;;4919153;28;91959;-80
2021/12/16 12:50:24;;;;;;;82.25;55.92;;;20.30;58.50;;;;;;4913444;28;95427;-80
2021/12/16 12:52:52;;;;;;;81.40;56.28;;;20.30;58.70;;;;;;4910240;28;91134;-78
2021/12/16 12:55:31;;;;;;;86.68;56.63;;;20.40;58.70;;;;;;4915277;28;92607;-78
2021/12/16 12:58:13;;;;;;;83.45;56.30;;;20.40;58.80;;;;;;4908775;28;89950;-78
2021/12/16 13:00:44;;;;;;;82.05;55.25;;;20.40;58.90;;;;;;4908370;28;90154;-78
2021/12/16 13:03:17;;;;;;;;;;;20.40;58.70;;;;;;4911504;28;90711;-79
2021/12/16 13:05:54;;;;;;;86.10;57.05;;;20.50;58.90;;;;;;4905630;28;90841;-77
2021/12/16 13:08:29;;;;;;;82.85;56.20;;;20.50;58.80;;;;;;4906057;28;90275;-77
2021/12/16 13:11:12;;;;;;;82.32;56.03;;;20.50;58.60;;;;;;4903949;28;89512;-77
2021/12/16 13:13:55;;;;;;;83.95;56.78;;;20.50;58.80;;;;;;4905657;28;91875;-78
2021/12/16 13:24:57;;;;;;;84.55;56.45;;;20.60;59.10;;;;;;4907146;28;90816;-78
2021/12/16 13:27:42;;;;;;;86.40;57.40;;;20.60;59.30;;;;;;4909370;28;91360;-78
2021/12/16 13:32:43;;;;;;;85.68;56.30;;;20.60;59.10;;;;;;4913888;28;91412;-78
2021/12/16 13:35:37;;;;;;;86.70;57.33;;;20.60;59.00;;;;;;4916452;28;91488;-77
2021/12/16 13:38:08;;;;;;;84.38;56.53;;;20.60;59.20;;;;;;4932666;28;91986;-78
2021/12/16 13:40:40;;;;;;;81.95;56.03;;;20.70;59.10;;;;;;4911691;28;90468;-78
2021/12/16 13:43:22;;;;;;;86.63;58.33;;;20.60;58.90;;;;;;4912296;28;90764;-78
2021/12/16 14:05:49;;;;;;;82.95;56.03;;;20.70;59.20;;;;;;4908779;28;91162;-78
2021/12/16 14:08:42;;;;;;;85.13;56.95;;;20.70;59.00;;;;;;4920846;28;90190;-78
2021/12/16 14:14:59;;;;;;;82.18;55.70;;;20.80;59.10;;;;;;4909065;28;91747;-78
2021/12/16 14:23:31;;;;;;;83.45;56.00;;;20.80;59.50;;;;;;4910393;28;89940;-79
2021/12/16 14:26:20;;;;;;;85.03;57.92;;;20.80;59.40;;;;;;4915156;28;94859;-79
2021/12/16 14:34:53;;;;;;;85.45;58.13;;;20.80;59.30;;;;;;4913912;28;91863;-80
2021/12/16 14:37:28;;;;;;;85.85;58.17;;;20.80;59.50;;;;;;4910725;28;90129;-81
2021/12/16 14:40:15;;;;;;;85.65;57.55;;;20.80;59.70;;;;;;4909252;28;91017;-80
2021/12/16 14:48:26;;;;;;;84.28;56.17;;;20.80;59.40;;;;;;4909441;28;90916;-78
2021/12/16 14:51:10;;;;;;;85.75;56.92;;;20.80;59.50;;;;;;4912883;28;91033;-80
2021/12/16 14:53:42;;;;;;;84.43;56.72;;;20.80;59.60;;;;;;4911119;28;90481;-80
2021/12/16 14:56:07;;;;;;;84.68;56.50;;;20.90;59.60;;;;;;4906510;28;91322;-80
2021/12/16 14:58:34;;;;;;;85.85;56.40;;;20.90;59.70;;;;;;4907928;28;91418;-79
2021/12/16 15:01:09;;;;;;;83.05;55.53;;;20.80;59.70;;;;;;4905379;28;90164;-79
2021/12/16 15:03:40;;;;;;;87.85;56.10;;;20.90;59.80;;;;;;4906434;28;90135;-79
2021/12/16 15:06:26;;;;;;;83.75;56.08;;;20.80;59.60;;;;;;4900293;28;91075;-78
2021/12/16 15:11:48;;;;;;;83.97;56.30;;;20.80;59.60;;;;;;4903729;28;90466;-78
2021/12/16 15:15:09;;;;;;;81.65;55.78;;;20.80;59.80;;;;;;4906356;28;89985;-78
2021/12/16 15:17:19;;;;;;;81.85;55.80;;;20.80;60.40;;;;;;4914127;28;90586;-78
2021/12/16 15:37:15;;;;;;;85.53;56.90;;;20.80;59.10;;;;;;4904980;28;91988;-79
2021/12/16 15:39:54;;;;;;;85.88;57.13;;;20.80;59.30;;;;;;4905780;28;92503;-79
2021/12/16 15:45:18;;;;;;;85.88;55.55;;;20.80;59.30;;;;;;4910384;28;90365;-80
2021/12/16 15:47:47;;;;;;;83.32;55.92;;;20.80;59.70;;;;;;4912204;28;90017;-79
2021/12/16 15:50:16;;;;;;;82.82;55.17;;;20.80;59.70;;;;;;4902650;28;94312;-77
2021/12/16 15:52:46;;;;;;;85.72;56.63;;;20.80;59.90;;;;;;4908271;28;90473;-78
2021/12/16 15:55:20;;;;;;;85.35;57.28;;;20.80;59.90;;;;;;4908458;28;89573;-78
2021/12/16 15:57:45;;;;;;;83.82;55.88;;;20.80;59.80;;;;;;4904441;28;89634;-79
2021/12/16 16:00:20;;;;;;;86.63;57.03;;;20.70;59.90;;;;;;4904709;28;91173;-78
2021/12/16 16:02:46;;;;;;;83.35;56.15;;;20.80;60.00;;;;;;4905128;28;91405;-79
2021/12/16 16:05:12;;;;;;;82.20;55.67;;;20.80;60.70;;;;;;4908998;28;91234;-80
2021/12/16 16:07:40;;;;;;;82.38;56.58;;;20.70;59.80;;;;;;4906365;28;91322;-78
2021/12/16 16:10:08;;;;;;;89.65;56.50;;;20.70;60.10;;;;;;4912259;28;91874;-79
2021/12/16 16:12:34;;;;;;;84.85;56.60;;;20.60;60.10;;;;;;4919050;28;93003;-78
2021/12/16 16:15:16;;;;;;;88.43;56.58;;;20.60;60.10;;;;;;4914412;28;92475;-80
2021/12/16 16:17:53;;;;;;;;;;;20.60;60.50;;;;;;4910483;28;91111;-79
2021/12/16 16:20:20;;;;;;;80.63;55.35;;;20.60;60.60;;;;;;4910572;28;93526;-78
2021/12/16 16:22:47;;;;;;;82.25;55.42;;;20.50;60.90;;;;;;4913862;28;91366;-79
2021/12/16 16:25:13;;;;;;;82.93;55.67;;;20.50;60.40;;;;;;4894489;28;90392;-77
2021/12/16 16:27:39;;;;;;;83.03;55.40;;;20.40;60.50;;;;;;4902165;28;91224;-78